sensor_id;sensor_type;location;lat;lon;timestamp;temperature;humidity
2729;DHT22;1372;47.956;7.830;2022-07-23T00:00:07;23.90;99.90
2729;DHT22;1372;47.956;7.830;2022-07-23T00:02:56;23.90;99.90
2729;DHT22;1372;47.956;7.830;2022-07-23T00:05:25;23.90;99.90
2729;DHT22;1372;47.956;7.830;2022-07-23T00:07:54;23.90;99.90
2729;DHT22;1372;47.956;7.830;2022-07-23T00:10:25;23.90;99.90
2729;DHT22;1372;47.956;7.830;2022-07-23T00:12:54;23.90;99.90
2729;DHT22;1372;47.956;7.830;2022-07-23T00:15:23;23.90;99.90
2729;DHT22;1372;47.956;7.830;2022-07-23T00:17:51;23.90;99.90
2729;DHT22;1372;47.956;7.830;2022-07-23T00:20:20;24.00;99.90
2729;DHT22;1372;47.956;7.830;2022-07-23T00:22:50;24.00;99.90
2729;DHT22;1372;47.956;7.830;2022-07-23T00:25:20;24.00;99.90
2729;DHT22;1372;47.956;7.830;2022-07-23T00:28:00;24.00;99.90
2729;DHT22;1372;47.956;7.830;2022-07-23T00:30:30;24.00;99.90
2729;DHT22;1372;47.956;7.830;2022-07-23T00:33:02;24.00;99.90
2729;DHT22;1372;47.956;7.830;2022-07-23T00:35:33;24.00;99.90
2729;DHT22;1372;47.956;7.830;2022-07-23T00:38:03;24.00;99.90
2729;DHT22;1372;47.956;7.830;2022-07-23T00:40:34;24.00;99.90
2729;DHT22;1372;47.956;7.830;2022-07-23T00:43:24;24.00;99.90
2729;DHT22;1372;47.956;7.830;2022-07-23T00:45:53;23.90;99.90
2729;DHT22;1372;47.956;7.830;2022-07-23T00:48:22;23.80;99.90
2729;DHT22;1372;47.956;7.830;2022-07-23T00:50:50;23.80;99.90
2729;DHT22;1372;47.956;7.830;2022-07-23T00:53:20;23.70;99.90
2729;DHT22;1372;47.956;7.830;2022-07-23T00:55:48;23.60;99.90
2729;DHT22;1372;47.956;7.830;2022-07-23T00:58:18;23.60;99.90
2729;DHT22;1372;47.956;7.830;2022-07-23T01:01:08;23.50;99.90
2729;DHT22;1372;47.956;7.830;2022-07-23T01:03:37;23.40;99.90
2729;DHT22;1372;47.956;7.830;2022-07-23T01:06:06;23.30;99.90
2729;DHT22;1372;47.956;7.830;2022-07-23T01:08:54;23.30;99.90
2729;DHT22;1372;47.956;7.830;2022-07-23T01:11:44;23.30;99.90
2729;DHT22;1372;47.956;7.830;2022-07-23T01:14:14;23.30;99.90
2729;DHT22;1372;47.956;7.830;2022-07-23T01:16:46;23.40;99.90
2729;DHT22;1372;47.956;7.830;2022-07-23T01:19:16;23.30;99.90
2729;DHT22;1372;47.956;7.830;2022-07-23T01:21:47;23.30;99.90
2729;DHT22;1372;47.956;7.830;2022-07-23T01:24:19;23.20;99.90
2729;DHT22;1372;47.956;7.830;2022-07-23T01:26:48;23.10;99.90
2729;DHT22;1372;47.956;7.830;2022-07-23T01:29:18;23.00;99.90
2729;DHT22;1372;47.956;7.830;2022-07-23T01:31:48;23.00;99.90
2729;DHT22;1372;47.956;7.830;2022-07-23T01:34:17;23.00;99.90
2729;DHT22;1372;47.956;7.830;2022-07-23T01:36:48;23.00;99.90
2729;DHT22;1372;47.956;7.830;2022-07-23T01:39:37;23.10;99.90
2729;DHT22;1372;47.956;7.830;2022-07-23T01:42:06;23.00;99.90
2729;DHT22;1372;47.956;7.830;2022-07-23T01:44:37;22.80;99.90
2729;DHT22;1372;47.956;7.830;2022-07-23T01:47:26;22.50;99.90
2729;DHT22;1372;47.956;7.830;2022-07-23T01:49:54;22.20;99.90
2729;DHT22;1372;47.956;7.830;2022-07-23T01:52:23;22.10;99.90
2729;DHT22;1372;47.956;7.830;2022-07-23T01:54:53;21.90;99.90
2729;DHT22;1372;47.956;7.830;2022-07-23T01:57:42;21.80;99.90
2729;DHT22;1372;47.956;7.830;2022-07-23T02:00:11;21.80;99.90
2729;DHT22;1372;47.956;7.830;2022-07-23T02:02:41;21.80;99.90
2729;DHT22;1372;47.956;7.830;2022-07-23T02:05:29;21.70;99.90
2729;DHT22;1372;47.956;7.830;2022-07-23T02:07:58;21.70;99.90
2729;DHT22;1372;47.956;7.830;2022-07-23T02:10:29;21.80;99.90
2729;DHT22;1372;47.956;7.830;2022-07-23T02:13:00;21.80;99.90
2729;DHT22;1372;47.956;7.830;2022-07-23T02:15:29;21.80;99.90
2729;DHT22;1372;47.956;7.830;2022-07-23T02:17:57;21.70;99.90
2729;DHT22;1372;47.956;7.830;2022-07-23T02:20:33;21.60;99.90
2729;DHT22;1372;47.956;7.830;2022-07-23T02:23:05;21.70;99.90
2729;DHT22;1372;47.956;7.830;2022-07-23T02:25:36;21.70;99.90
2729;DHT22;1372;47.956;7.830;2022-07-23T02:28:05;21.70;99.90
2729;DHT22;1372;47.956;7.830;2022-07-23T02:30:34;21.70;99.90
2729;DHT22;1372;47.956;7.830;2022-07-23T02:33:03;21.50;99.90
2729;DHT22;1372;47.956;7.830;2022-07-23T02:35:51;21.40;99.90
2729;DHT22;1372;47.956;7.830;2022-07-23T02:38:20;21.40;99.90
2729;DHT22;1372;47.956;7.830;2022-07-23T02:41:10;21.40;99.90
2729;DHT22;1372;47.956;7.830;2022-07-23T02:43:39;21.30;99.90
2729;DHT22;1372;47.956;7.830;2022-07-23T02:46:08;21.20;99.90
2729;DHT22;1372;47.956;7.830;2022-07-23T02:48:37;21.10;99.90
2729;DHT22;1372;47.956;7.830;2022-07-23T02:51:06;21.10;99.90
2729;DHT22;1372;47.956;7.830;2022-07-23T02:53:36;21.20;99.90
2729;DHT22;1372;47.956;7.830;2022-07-23T02:56:05;21.00;99.90
2729;DHT22;1372;47.956;7.830;2022-07-23T02:58:35;21.00;99.90
2729;DHT22;1372;47.956;7.830;2022-07-23T03:01:04;20.90;99.90
2729;DHT22;1372;47.956;7.830;2022-07-23T03:03:33;21.00;99.90
2729;DHT22;1372;47.956;7.830;2022-07-23T03:06:01;21.00;99.90
2729;DHT22;1372;47.956;7.830;2022-07-23T03:08:32;20.90;99.90
2729;DHT22;1372;47.956;7.830;2022-07-23T03:11:01;20.90;99.90
2729;DHT22;1372;47.956;7.830;2022-07-23T03:13:30;20.90;99.90
2729;DHT22;1372;47.956;7.830;2022-07-23T03:16:02;21.00;99.90
2729;DHT22;1372;47.956;7.830;2022-07-23T03:18:34;21.00;99.90
2729;DHT22;1372;47.956;7.830;2022-07-23T03:21:07;21.00;99.90
2729;DHT22;1372;47.956;7.830;2022-07-23T03:23:36;21.00;99.90
2729;DHT22;1372;47.956;7.830;2022-07-23T03:26:05;20.90;99.90
2729;DHT22;1372;47.956;7.830;2022-07-23T03:28:36;20.90;99.90
2729;DHT22;1372;47.956;7.830;2022-07-23T03:31:06;20.90;99.90
2729;DHT22;1372;47.956;7.830;2022-07-23T03:33:36;21.00;99.90
2729;DHT22;1372;47.956;7.830;2022-07-23T03:36:05;20.90;99.90
2729;DHT22;1372;47.956;7.830;2022-07-23T03:38:35;20.90;99.90
2729;DHT22;1372;47.956;7.830;2022-07-23T03:41:03;21.00;99.90
2729;DHT22;1372;47.956;7.830;2022-07-23T03:43:33;21.00;99.90
2729;DHT22;1372;47.956;7.830;2022-07-23T03:46:22;20.90;99.90
2729;DHT22;1372;47.956;7.830;2022-07-23T03:48:52;21.00;99.90
2729;DHT22;1372;47.956;7.830;2022-07-23T03:51:26;21.00;99.90
2729;DHT22;1372;47.956;7.830;2022-07-23T03:53:55;20.90;99.90
2729;DHT22;1372;47.956;7.830;2022-07-23T03:56:25;20.80;99.90
2729;DHT22;1372;47.956;7.830;2022-07-23T03:59:13;20.80;99.90
2729;DHT22;1372;47.956;7.830;2022-07-23T04:01:50;20.90;99.90
2729;DHT22;1372;47.956;7.830;2022-07-23T04:04:19;20.90;99.90
2729;DHT22;1372;47.956;7.830;2022-07-23T04:07:07;20.90;99.90
2729;DHT22;1372;47.956;7.830;2022-07-23T04:09:36;20.90;99.90
2729;DHT22;1372;47.956;7.830;2022-07-23T04:12:06;20.60;99.90
2729;DHT22;1372;47.956;7.830;2022-07-23T04:14:35;20.50;99.90
2729;DHT22;1372;47.956;7.830;2022-07-23T04:17:06;20.60;99.90
2729;DHT22;1372;47.956;7.830;2022-07-23T04:19:35;20.50;99.90
2729;DHT22;1372;47.956;7.830;2022-07-23T04:22:07;20.50;99.90
2729;DHT22;1372;47.956;7.830;2022-07-23T04:24:36;20.50;99.90
2729;DHT22;1372;47.956;7.830;2022-07-23T04:27:05;20.40;99.90
2729;DHT22;1372;47.956;7.830;2022-07-23T04:29:34;20.40;99.90
2729;DHT22;1372;47.956;7.830;2022-07-23T04:32:02;20.50;99.90
2729;DHT22;1372;47.956;7.830;2022-07-23T04:34:33;20.50;99.90
2729;DHT22;1372;47.956;7.830;2022-07-23T04:37:02;20.50;99.90
2729;DHT22;1372;47.956;7.830;2022-07-23T04:39:31;20.40;99.90
2729;DHT22;1372;47.956;7.830;2022-07-23T04:42:20;20.40;99.90
2729;DHT22;1372;47.956;7.830;2022-07-23T04:44:48;20.50;99.90
2729;DHT22;1372;47.956;7.830;2022-07-23T04:47:36;20.60;99.90
2729;DHT22;1372;47.956;7.830;2022-07-23T04:50:07;20.60;99.90
2729;DHT22;1372;47.956;7.830;2022-07-23T04:52:37;20.60;99.90
2729;DHT22;1372;47.956;7.830;2022-07-23T04:55:21;20.60;99.90
2729;DHT22;1372;47.956;7.830;2022-07-23T04:57:50;20.60;99.90
2729;DHT22;1372;47.956;7.830;2022-07-23T05:00:19;20.60;99.90
2729;DHT22;1372;47.956;7.830;2022-07-23T05:02:47;20.60;99.90
2729;DHT22;1372;47.956;7.830;2022-07-23T05:05:17;20.70;99.90
2729;DHT22;1372;47.956;7.830;2022-07-23T05:08:02;20.70;99.90
2729;DHT22;1372;47.956;7.830;2022-07-23T05:10:31;20.70;99.90
2729;DHT22;1372;47.956;7.830;2022-07-23T05:13:00;20.70;99.90
2729;DHT22;1372;47.956;7.830;2022-07-23T05:15:29;20.70;99.90
2729;DHT22;1372;47.956;7.830;2022-07-23T05:17:59;20.70;99.90
2729;DHT22;1372;47.956;7.830;2022-07-23T05:20:49;20.80;99.90
2729;DHT22;1372;47.956;7.830;2022-07-23T05:23:20;20.90;99.90
2729;DHT22;1372;47.956;7.830;2022-07-23T05:25:48;21.00;99.90
2729;DHT22;1372;47.956;7.830;2022-07-23T05:28:18;21.00;99.90
2729;DHT22;1372;47.956;7.830;2022-07-23T05:30:49;21.00;99.90
2729;DHT22;1372;47.956;7.830;2022-07-23T05:33:37;21.00;99.90
2729;DHT22;1372;47.956;7.830;2022-07-23T05:36:08;21.10;99.90
2729;DHT22;1372;47.956;7.830;2022-07-23T05:38:39;21.20;99.90
2729;DHT22;1372;47.956;7.830;2022-07-23T05:41:08;21.30;99.90
2729;DHT22;1372;47.956;7.830;2022-07-23T05:43:57;21.30;99.90
2729;DHT22;1372;47.956;7.830;2022-07-23T05:46:45;21.40;99.90
2729;DHT22;1372;47.956;7.830;2022-07-23T05:49:14;21.40;99.90
2729;DHT22;1372;47.956;7.830;2022-07-23T05:51:44;21.50;99.90
2729;DHT22;1372;47.956;7.830;2022-07-23T05:54:13;21.60;99.90
2729;DHT22;1372;47.956;7.830;2022-07-23T05:56:42;21.60;99.90
2729;DHT22;1372;47.956;7.830;2022-07-23T05:59:30;21.70;99.90
2729;DHT22;1372;47.956;7.830;2022-07-23T06:01:59;21.80;99.90
2729;DHT22;1372;47.956;7.830;2022-07-23T06:04:28;21.90;99.90
2729;DHT22;1372;47.956;7.830;2022-07-23T06:06:58;21.90;99.90
2729;DHT22;1372;47.956;7.830;2022-07-23T06:09:27;21.90;99.90
2729;DHT22;1372;47.956;7.830;2022-07-23T06:11:57;22.00;99.90
2729;DHT22;1372;47.956;7.830;2022-07-23T06:14:27;22.00;99.90
2729;DHT22;1372;47.956;7.830;2022-07-23T06:16:56;22.10;99.90
2729;DHT22;1372;47.956;7.830;2022-07-23T06:19:26;22.10;99.90
2729;DHT22;1372;47.956;7.830;2022-07-23T06:21:55;22.20;99.90
2729;DHT22;1372;47.956;7.830;2022-07-23T06:24:25;22.20;99.90
2729;DHT22;1372;47.956;7.830;2022-07-23T06:27:14;22.30;99.90
2729;DHT22;1372;47.956;7.830;2022-07-23T06:30:06;22.30;99.90
2729;DHT22;1372;47.956;7.830;2022-07-23T06:32:37;22.40;99.90
2729;DHT22;1372;47.956;7.830;2022-07-23T06:35:07;22.40;99.90
2729;DHT22;1372;47.956;7.830;2022-07-23T06:37:37;22.40;99.90
2729;DHT22;1372;47.956;7.830;2022-07-23T06:40:09;22.50;99.90
2729;DHT22;1372;47.956;7.830;2022-07-23T06:42:40;22.40;99.90
2729;DHT22;1372;47.956;7.830;2022-07-23T06:45:11;22.40;99.90
2729;DHT22;1372;47.956;7.830;2022-07-23T06:48:00;22.40;99.90
2729;DHT22;1372;47.956;7.830;2022-07-23T06:50:31;22.50;99.90
2729;DHT22;1372;47.956;7.830;2022-07-23T06:53:20;22.50;99.90
2729;DHT22;1372;47.956;7.830;2022-07-23T06:55:50;22.50;99.90
2729;DHT22;1372;47.956;7.830;2022-07-23T06:58:19;22.50;99.90
2729;DHT22;1372;47.956;7.830;2022-07-23T07:00:51;22.50;99.90
2729;DHT22;1372;47.956;7.830;2022-07-23T07:03:19;22.60;99.90
2729;DHT22;1372;47.956;7.830;2022-07-23T07:05:48;22.70;99.90
2729;DHT22;1372;47.956;7.830;2022-07-23T07:08:17;22.90;99.90
2729;DHT22;1372;47.956;7.830;2022-07-23T07:10:46;23.00;99.90
2729;DHT22;1372;47.956;7.830;2022-07-23T07:13:16;23.00;99.90
2729;DHT22;1372;47.956;7.830;2022-07-23T07:15:45;23.00;99.90
2729;DHT22;1372;47.956;7.830;2022-07-23T07:18:14;23.00;99.90
2729;DHT22;1372;47.956;7.830;2022-07-23T07:21:02;23.00;99.90
2729;DHT22;1372;47.956;7.830;2022-07-23T07:23:31;23.00;99.90
2729;DHT22;1372;47.956;7.830;2022-07-23T07:26:19;23.10;99.90
2729;DHT22;1372;47.956;7.830;2022-07-23T07:28:49;23.20;99.90
2729;DHT22;1372;47.956;7.830;2022-07-23T07:31:18;23.20;99.90
2729;DHT22;1372;47.956;7.830;2022-07-23T07:33:47;23.30;99.90
2729;DHT22;1372;47.956;7.830;2022-07-23T07:36:35;23.30;99.90
2729;DHT22;1372;47.956;7.830;2022-07-23T07:39:04;23.30;99.90
2729;DHT22;1372;47.956;7.830;2022-07-23T07:41:33;23.30;99.90
2729;DHT22;1372;47.956;7.830;2022-07-23T07:44:04;23.40;99.90
2729;DHT22;1372;47.956;7.830;2022-07-23T07:46:33;23.40;99.90
2729;DHT22;1372;47.956;7.830;2022-07-23T07:49:02;23.40;99.90
2729;DHT22;1372;47.956;7.830;2022-07-23T07:51:31;23.40;99.90
2729;DHT22;1372;47.956;7.830;2022-07-23T07:54:01;23.50;99.90
2729;DHT22;1372;47.956;7.830;2022-07-23T07:56:30;23.50;99.90
2729;DHT22;1372;47.956;7.830;2022-07-23T07:58:59;23.50;99.90
2729;DHT22;1372;47.956;7.830;2022-07-23T08:01:31;23.50;99.90
2729;DHT22;1372;47.956;7.830;2022-07-23T08:04:03;23.50;99.90
2729;DHT22;1372;47.956;7.830;2022-07-23T08:06:52;23.60;99.90
2729;DHT22;1372;47.956;7.830;2022-07-23T08:09:20;23.60;99.90
2729;DHT22;1372;47.956;7.830;2022-07-23T08:11:49;23.60;99.90
2729;DHT22;1372;47.956;7.830;2022-07-23T08:14:46;23.70;99.90
2729;DHT22;1372;47.956;7.830;2022-07-23T08:17:21;23.70;99.90
2729;DHT22;1372;47.956;7.830;2022-07-23T08:19:50;23.80;99.90
2729;DHT22;1372;47.956;7.830;2022-07-23T08:22:21;23.80;99.90
2729;DHT22;1372;47.956;7.830;2022-07-23T08:24:50;23.90;99.90
2729;DHT22;1372;47.956;7.830;2022-07-23T08:27:18;23.90;99.90
2729;DHT22;1372;47.956;7.830;2022-07-23T08:30:07;24.00;99.90
2729;DHT22;1372;47.956;7.830;2022-07-23T08:32:55;24.10;99.90
2729;DHT22;1372;47.956;7.830;2022-07-23T08:35:30;24.10;99.90
2729;DHT22;1372;47.956;7.830;2022-07-23T08:38:02;24.10;99.90
2729;DHT22;1372;47.956;7.830;2022-07-23T08:40:53;24.10;99.90
2729;DHT22;1372;47.956;7.830;2022-07-23T08:43:26;24.20;99.90
2729;DHT22;1372;47.956;7.830;2022-07-23T08:45:57;24.20;99.90
2729;DHT22;1372;47.956;7.830;2022-07-23T08:48:33;24.20;99.90
2729;DHT22;1372;47.956;7.830;2022-07-23T08:51:05;24.20;99.90
2729;DHT22;1372;47.956;7.830;2022-07-23T08:53:34;24.20;99.90
2729;DHT22;1372;47.956;7.830;2022-07-23T08:56:05;24.30;99.90
2729;DHT22;1372;47.956;7.830;2022-07-23T08:58:34;24.40;99.90
2729;DHT22;1372;47.956;7.830;2022-07-23T09:01:04;24.50;99.90
2729;DHT22;1372;47.956;7.830;2022-07-23T09:03:37;24.60;99.90
2729;DHT22;1372;47.956;7.830;2022-07-23T09:06:07;24.70;99.90
2729;DHT22;1372;47.956;7.830;2022-07-23T09:08:37;24.70;99.90
2729;DHT22;1372;47.956;7.830;2022-07-23T09:11:26;24.70;99.90
2729;DHT22;1372;47.956;7.830;2022-07-23T09:14:14;24.70;99.90
2729;DHT22;1372;47.956;7.830;2022-07-23T09:16:43;24.60;99.90
2729;DHT22;1372;47.956;7.830;2022-07-23T09:19:13;24.70;99.90
2729;DHT22;1372;47.956;7.830;2022-07-23T09:21:42;24.70;99.90
2729;DHT22;1372;47.956;7.830;2022-07-23T09:24:12;24.70;99.90
2729;DHT22;1372;47.956;7.830;2022-07-23T09:26:44;24.80;99.90
2729;DHT22;1372;47.956;7.830;2022-07-23T09:29:33;24.80;99.90
2729;DHT22;1372;47.956;7.830;2022-07-23T09:32:03;24.80;99.90
2729;DHT22;1372;47.956;7.830;2022-07-23T09:34:37;24.80;99.90
2729;DHT22;1372;47.956;7.830;2022-07-23T09:37:09;24.90;99.90
2729;DHT22;1372;47.956;7.830;2022-07-23T09:39:43;24.90;99.90
2729;DHT22;1372;47.956;7.830;2022-07-23T09:42:14;24.90;99.90
2729;DHT22;1372;47.956;7.830;2022-07-23T09:44:45;24.90;99.90
2729;DHT22;1372;47.956;7.830;2022-07-23T09:47:16;24.90;99.90
2729;DHT22;1372;47.956;7.830;2022-07-23T09:50:00;24.90;99.90
2729;DHT22;1372;47.956;7.830;2022-07-23T09:52:36;24.90;99.90
2729;DHT22;1372;47.956;7.830;2022-07-23T09:55:11;25.00;99.90
2729;DHT22;1372;47.956;7.830;2022-07-23T09:57:55;25.10;99.90
2729;DHT22;1372;47.956;7.830;2022-07-23T10:00:25;25.10;99.90
2729;DHT22;1372;47.956;7.830;2022-07-23T10:03:14;25.20;99.90
2729;DHT22;1372;47.956;7.830;2022-07-23T10:05:45;25.20;99.90
2729;DHT22;1372;47.956;7.830;2022-07-23T10:08:18;25.30;99.90
2729;DHT22;1372;47.956;7.830;2022-07-23T10:10:47;25.40;99.90
2729;DHT22;1372;47.956;7.830;2022-07-23T10:13:16;25.50;99.90
2729;DHT22;1372;47.956;7.830;2022-07-23T10:16:05;25.50;99.90
2729;DHT22;1372;47.956;7.830;2022-07-23T10:18:35;25.50;99.90
2729;DHT22;1372;47.956;7.830;2022-07-23T10:21:18;25.60;99.90
2729;DHT22;1372;47.956;7.830;2022-07-23T10:24:00;25.60;99.90
2729;DHT22;1372;47.956;7.830;2022-07-23T10:26:41;25.60;99.90
2729;DHT22;1372;47.956;7.830;2022-07-23T10:29:24;25.60;99.90
2729;DHT22;1372;47.956;7.830;2022-07-23T10:32:30;25.70;99.90
2729;DHT22;1372;47.956;7.830;2022-07-23T10:35:31;25.70;99.90
2729;DHT22;1372;47.956;7.830;2022-07-23T10:38:30;25.70;99.90
2729;DHT22;1372;47.956;7.830;2022-07-23T10:41:00;25.70;99.90
2729;DHT22;1372;47.956;7.830;2022-07-23T10:43:30;25.70;99.90
2729;DHT22;1372;47.956;7.830;2022-07-23T10:46:21;25.70;99.90
2729;DHT22;1372;47.956;7.830;2022-07-23T10:49:25;25.70;99.90
2729;DHT22;1372;47.956;7.830;2022-07-23T10:52:23;25.70;99.90
2729;DHT22;1372;47.956;7.830;2022-07-23T10:54:56;25.70;99.90
2729;DHT22;1372;47.956;7.830;2022-07-23T10:58:04;25.70;99.90
2729;DHT22;1372;47.956;7.830;2022-07-23T11:00:34;25.70;99.90
2729;DHT22;1372;47.956;7.830;2022-07-23T11:03:05;25.70;99.90
2729;DHT22;1372;47.956;7.830;2022-07-23T11:06:02;25.80;99.90
2729;DHT22;1372;47.956;7.830;2022-07-23T11:08:32;25.80;99.90
2729;DHT22;1372;47.956;7.830;2022-07-23T11:11:11;25.80;99.90
2729;DHT22;1372;47.956;7.830;2022-07-23T11:13:45;25.80;99.90
2729;DHT22;1372;47.956;7.830;2022-07-23T11:16:46;25.80;99.90
2729;DHT22;1372;47.956;7.830;2022-07-23T11:19:16;25.80;99.90
2729;DHT22;1372;47.956;7.830;2022-07-23T11:21:47;25.90;99.90
2729;DHT22;1372;47.956;7.830;2022-07-23T11:24:21;26.00;99.90
2729;DHT22;1372;47.956;7.830;2022-07-23T11:27:13;26.10;99.90
2729;DHT22;1372;47.956;7.830;2022-07-23T11:29:46;26.20;99.90
2729;DHT22;1372;47.956;7.830;2022-07-23T11:32:39;26.40;99.90
2729;DHT22;1372;47.956;7.830;2022-07-23T11:35:29;26.40;99.90
2729;DHT22;1372;47.956;7.830;2022-07-23T11:38:06;26.60;99.90
2729;DHT22;1372;47.956;7.830;2022-07-23T11:40:35;26.70;99.90
2729;DHT22;1372;47.956;7.830;2022-07-23T11:43:08;26.80;99.90
2729;DHT22;1372;47.956;7.830;2022-07-23T11:45:59;26.80;99.90
2729;DHT22;1372;47.956;7.830;2022-07-23T11:48:29;26.90;99.90
2729;DHT22;1372;47.956;7.830;2022-07-23T11:51:06;26.90;99.90
2729;DHT22;1372;47.956;7.830;2022-07-23T11:53:38;27.00;99.90
2729;DHT22;1372;47.956;7.830;2022-07-23T11:56:09;27.00;99.90
2729;DHT22;1372;47.956;7.830;2022-07-23T11:58:54;26.90;99.90
2729;DHT22;1372;47.956;7.830;2022-07-23T12:01:56;26.90;99.90
2729;DHT22;1372;47.956;7.830;2022-07-23T12:04:37;27.10;99.90
2729;DHT22;1372;47.956;7.830;2022-07-23T12:07:28;27.00;99.90
2729;DHT22;1372;47.956;7.830;2022-07-23T12:10:03;27.00;99.90
2729;DHT22;1372;47.956;7.830;2022-07-23T12:12:37;27.10;99.90
2729;DHT22;1372;47.956;7.830;2022-07-23T12:15:09;27.30;99.90
2729;DHT22;1372;47.956;7.830;2022-07-23T12:17:40;27.40;99.90
2729;DHT22;1372;47.956;7.830;2022-07-23T12:20:20;27.50;99.90
2729;DHT22;1372;47.956;7.830;2022-07-23T12:23:12;27.60;99.90
2729;DHT22;1372;47.956;7.830;2022-07-23T12:26:12;27.50;99.90
2729;DHT22;1372;47.956;7.830;2022-07-23T12:28:40;27.60;99.90
2729;DHT22;1372;47.956;7.830;2022-07-23T12:31:26;27.70;99.90
2729;DHT22;1372;47.956;7.830;2022-07-23T12:33:55;27.90;99.90
2729;DHT22;1372;47.956;7.830;2022-07-23T12:36:57;28.00;99.90
2729;DHT22;1372;47.956;7.830;2022-07-23T12:39:30;28.10;99.90
2729;DHT22;1372;47.956;7.830;2022-07-23T12:41:59;28.10;99.90
2729;DHT22;1372;47.956;7.830;2022-07-23T12:44:27;28.10;99.90
2729;DHT22;1372;47.956;7.830;2022-07-23T12:46:58;28.10;99.90
2729;DHT22;1372;47.956;7.830;2022-07-23T12:49:27;28.00;99.90
2729;DHT22;1372;47.956;7.830;2022-07-23T12:51:59;27.90;99.90
2729;DHT22;1372;47.956;7.830;2022-07-23T12:54:29;27.90;99.90
2729;DHT22;1372;47.956;7.830;2022-07-23T12:56:58;28.10;99.90
2729;DHT22;1372;47.956;7.830;2022-07-23T12:59:30;28.00;99.90
2729;DHT22;1372;47.956;7.830;2022-07-23T13:02:01;27.70;99.90
2729;DHT22;1372;47.956;7.830;2022-07-23T13:04:49;27.70;99.90
2729;DHT22;1372;47.956;7.830;2022-07-23T13:07:18;27.50;99.90
2729;DHT22;1372;47.956;7.830;2022-07-23T13:09:47;27.60;99.90
2729;DHT22;1372;47.956;7.830;2022-07-23T13:12:18;27.60;99.90
2729;DHT22;1372;47.956;7.830;2022-07-23T13:14:47;27.50;99.90
2729;DHT22;1372;47.956;7.830;2022-07-23T13:17:19;27.60;99.90
2729;DHT22;1372;47.956;7.830;2022-07-23T13:20:09;27.90;99.90
2729;DHT22;1372;47.956;7.830;2022-07-23T13:22:41;28.20;99.90
2729;DHT22;1372;47.956;7.830;2022-07-23T13:25:35;28.30;99.90
2729;DHT22;1372;47.956;7.830;2022-07-23T13:28:05;28.30;99.90
2729;DHT22;1372;47.956;7.830;2022-07-23T13:30:44;28.30;99.90
2729;DHT22;1372;47.956;7.830;2022-07-23T13:33:17;28.20;99.90
2729;DHT22;1372;47.956;7.830;2022-07-23T13:35:47;28.10;99.90
2729;DHT22;1372;47.956;7.830;2022-07-23T13:38:17;28.20;99.90
2729;DHT22;1372;47.956;7.830;2022-07-23T13:40:48;28.30;99.90
2729;DHT22;1372;47.956;7.830;2022-07-23T13:43:22;28.30;99.90
2729;DHT22;1372;47.956;7.830;2022-07-23T13:45:55;28.50;99.90
2729;DHT22;1372;47.956;7.830;2022-07-23T13:48:25;28.80;99.90
2729;DHT22;1372;47.956;7.830;2022-07-23T13:50:56;28.90;99.90
2729;DHT22;1372;47.956;7.830;2022-07-23T13:53:26;28.90;99.90
2729;DHT22;1372;47.956;7.830;2022-07-23T13:55:55;29.10;99.90
2729;DHT22;1372;47.956;7.830;2022-07-23T13:58:44;29.10;99.90
2729;DHT22;1372;47.956;7.830;2022-07-23T14:01:23;29.10;99.90
2729;DHT22;1372;47.956;7.830;2022-07-23T14:04:26;29.00;99.90
2729;DHT22;1372;47.956;7.830;2022-07-23T14:07:07;29.10;99.90
2729;DHT22;1372;47.956;7.830;2022-07-23T14:09:36;29.00;99.90
2729;DHT22;1372;47.956;7.830;2022-07-23T14:12:12;28.90;99.90
2729;DHT22;1372;47.956;7.830;2022-07-23T14:14:44;28.80;99.90
2729;DHT22;1372;47.956;7.830;2022-07-23T14:17:13;28.90;99.90
2729;DHT22;1372;47.956;7.830;2022-07-23T14:19:43;29.00;99.90
2729;DHT22;1372;47.956;7.830;2022-07-23T14:22:15;29.10;99.90
2729;DHT22;1372;47.956;7.830;2022-07-23T14:24:46;29.10;99.90
2729;DHT22;1372;47.956;7.830;2022-07-23T14:27:22;29.20;99.90
2729;DHT22;1372;47.956;7.830;2022-07-23T14:30:11;29.10;99.90
2729;DHT22;1372;47.956;7.830;2022-07-23T14:32:40;28.80;99.90
2729;DHT22;1372;47.956;7.830;2022-07-23T14:35:11;28.50;99.90
2729;DHT22;1372;47.956;7.830;2022-07-23T14:37:40;28.40;99.90
2729;DHT22;1372;47.956;7.830;2022-07-23T14:40:29;28.20;99.90
2729;DHT22;1372;47.956;7.830;2022-07-23T14:43:17;28.20;99.90
2729;DHT22;1372;47.956;7.830;2022-07-23T14:46:06;28.10;99.90
2729;DHT22;1372;47.956;7.830;2022-07-23T14:48:36;28.00;99.90
2729;DHT22;1372;47.956;7.830;2022-07-23T14:51:06;28.00;99.90
2729;DHT22;1372;47.956;7.830;2022-07-23T14:53:36;28.00;99.90
2729;DHT22;1372;47.956;7.830;2022-07-23T14:56:24;28.10;99.90
2729;DHT22;1372;47.956;7.830;2022-07-23T14:59:15;28.10;99.90
2729;DHT22;1372;47.956;7.830;2022-07-23T15:01:44;28.50;99.90
2729;DHT22;1372;47.956;7.830;2022-07-23T15:04:13;28.90;99.90
2729;DHT22;1372;47.956;7.830;2022-07-23T15:07:04;29.20;99.90
2729;DHT22;1372;47.956;7.830;2022-07-23T15:09:35;29.40;99.90
2729;DHT22;1372;47.956;7.830;2022-07-23T15:12:04;29.60;99.90
2729;DHT22;1372;47.956;7.830;2022-07-23T15:14:34;29.80;99.90
2729;DHT22;1372;47.956;7.830;2022-07-23T15:17:05;29.70;99.90
2729;DHT22;1372;47.956;7.830;2022-07-23T15:19:50;29.90;99.90
2729;DHT22;1372;47.956;7.830;2022-07-23T15:22:40;30.00;99.90
2729;DHT22;1372;47.956;7.830;2022-07-23T15:25:10;29.80;99.90
2729;DHT22;1372;47.956;7.830;2022-07-23T15:28:06;29.80;99.90
2729;DHT22;1372;47.956;7.830;2022-07-23T15:31:00;29.80;99.90
2729;DHT22;1372;47.956;7.830;2022-07-23T15:33:29;29.80;99.90
2729;DHT22;1372;47.956;7.830;2022-07-23T15:35:59;29.70;99.90
2729;DHT22;1372;47.956;7.830;2022-07-23T15:38:29;29.70;99.90
2729;DHT22;1372;47.956;7.830;2022-07-23T15:41:18;29.80;99.90
2729;DHT22;1372;47.956;7.830;2022-07-23T15:43:46;29.90;99.90
2729;DHT22;1372;47.956;7.830;2022-07-23T15:46:23;29.90;99.90
2729;DHT22;1372;47.956;7.830;2022-07-23T15:48:56;30.10;99.90
2729;DHT22;1372;47.956;7.830;2022-07-23T15:51:25;30.20;99.90
2729;DHT22;1372;47.956;7.830;2022-07-23T15:54:14;30.20;99.90
2729;DHT22;1372;47.956;7.830;2022-07-23T15:56:43;30.30;99.90
2729;DHT22;1372;47.956;7.830;2022-07-23T15:59:12;30.20;99.90
2729;DHT22;1372;47.956;7.830;2022-07-23T16:02:00;30.20;99.90
2729;DHT22;1372;47.956;7.830;2022-07-23T16:04:35;30.20;99.90
2729;DHT22;1372;47.956;7.830;2022-07-23T16:07:24;30.30;99.90
2729;DHT22;1372;47.956;7.830;2022-07-23T16:09:55;30.30;99.90
2729;DHT22;1372;47.956;7.830;2022-07-23T16:12:24;29.90;99.90
2729;DHT22;1372;47.956;7.830;2022-07-23T16:14:52;29.60;99.90
2729;DHT22;1372;47.956;7.830;2022-07-23T16:17:22;29.60;99.90
2729;DHT22;1372;47.956;7.830;2022-07-23T16:20:10;29.60;99.90
2729;DHT22;1372;47.956;7.830;2022-07-23T16:22:40;29.80;99.90
2729;DHT22;1372;47.956;7.830;2022-07-23T16:25:10;29.90;99.90
2729;DHT22;1372;47.956;7.830;2022-07-23T16:27:40;29.90;99.90
2729;DHT22;1372;47.956;7.830;2022-07-23T16:30:21;30.00;99.90
2729;DHT22;1372;47.956;7.830;2022-07-23T16:34:05;29.90;99.90
2729;DHT22;1372;47.956;7.830;2022-07-23T16:36:35;30.00;99.90
2729;DHT22;1372;47.956;7.830;2022-07-23T16:39:10;29.90;99.90
2729;DHT22;1372;47.956;7.830;2022-07-23T16:41:42;29.90;99.90
2729;DHT22;1372;47.956;7.830;2022-07-23T16:44:12;29.90;99.90
2729;DHT22;1372;47.956;7.830;2022-07-23T16:46:43;29.80;99.90
2729;DHT22;1372;47.956;7.830;2022-07-23T16:49:12;29.90;99.90
2729;DHT22;1372;47.956;7.830;2022-07-23T16:51:41;29.80;99.90